createdAt,value
2022-09-14T00:01:44.292Z,14.60
2022-09-14T00:04:15.583Z,14.60
2022-09-14T00:06:44.927Z,14.50
2022-09-14T00:09:17.609Z,14.50
2022-09-14T00:11:46.468Z,14.50
2022-09-14T00:14:19.007Z,14.50
2022-09-14T00:16:49.416Z,14.40
2022-09-14T00:19:20.234Z,14.40
2022-09-14T00:21:52.502Z,14.40
2022-09-14T00:24:21.082Z,14.40
2022-09-14T00:26:49.640Z,14.30
2022-09-14T00:29:18.403Z,14.30
2022-09-14T00:31:48.475Z,14.30
2022-09-14T00:34:18.369Z,14.30
2022-09-14T00:36:48.480Z,14.30
2022-09-14T00:39:18.112Z,14.20
2022-09-14T00:41:49.302Z,14.20
2022-09-14T00:44:55.076Z,14.20
2022-09-14T00:47:26.081Z,14.20
2022-09-14T00:49:55.050Z,14.10
2022-09-14T00:52:26.851Z,14.10
2022-09-14T00:54:58.044Z,14.10
2022-09-14T00:57:28.479Z,14.10
2022-09-14T00:59:58.150Z,14.00
2022-09-14T01:02:29.394Z,14.00
2022-09-14T01:04:58.491Z,14.00
2022-09-14T01:07:42.534Z,13.90
2022-09-14T01:10:20.650Z,13.90
2022-09-14T01:12:59.265Z,13.80
2022-09-14T01:15:36.010Z,13.80
2022-09-14T01:18:09.601Z,13.80
2022-09-14T01:20:42.201Z,13.80
2022-09-14T01:23:18.482Z,13.80
2022-09-14T01:26:09.710Z,13.80
2022-09-14T01:28:46.813Z,13.80
2022-09-14T01:31:21.517Z,13.70
2022-09-14T01:33:56.179Z,13.70
2022-09-14T01:36:27.339Z,13.70
2022-09-14T01:38:56.580Z,13.70
2022-09-14T01:41:30.289Z,13.70
2022-09-14T01:44:04.380Z,13.60
2022-09-14T01:46:40.448Z,13.60
2022-09-14T01:49:15.295Z,13.60
2022-09-14T01:51:50.831Z,13.60
2022-09-14T01:54:26.333Z,13.60
2022-09-14T01:56:58.230Z,13.60
2022-09-14T01:59:31.533Z,13.60
2022-09-14T02:02:07.062Z,13.60
2022-09-14T02:04:42.531Z,13.60
2022-09-14T02:07:11.289Z,13.50
2022-09-14T02:09:41.000Z,13.50
2022-09-14T02:12:10.009Z,13.50
2022-09-14T02:14:46.172Z,13.50
2022-09-14T02:17:15.615Z,13.40
2022-09-14T02:19:49.900Z,13.40
2022-09-14T02:22:18.390Z,13.30
2022-09-14T02:24:46.731Z,13.30
2022-09-14T02:27:15.072Z,13.30
2022-09-14T02:29:44.908Z,13.20
2022-09-14T02:32:22.520Z,13.20
2022-09-14T02:34:59.509Z,13.20
2022-09-14T02:37:38.262Z,13.10
2022-09-14T02:40:14.162Z,13.10
2022-09-14T02:42:51.118Z,13.10
2022-09-14T02:45:30.154Z,13.10
2022-09-14T02:48:10.061Z,13.10
2022-09-14T02:50:46.427Z,13.10
2022-09-14T02:53:20.275Z,13.00
2022-09-14T02:55:52.570Z,13.00
2022-09-14T02:58:22.082Z,13.00
2022-09-14T03:00:52.908Z,13.00
2022-09-14T03:03:22.944Z,12.90
2022-09-14T03:05:51.438Z,12.90
2022-09-14T03:08:19.913Z,12.90
2022-09-14T03:10:48.188Z,12.90
2022-09-14T03:13:16.702Z,12.80
2022-09-14T03:15:45.501Z,12.80
2022-09-14T03:18:15.519Z,12.80
2022-09-14T03:20:44.283Z,12.70
2022-09-14T03:23:13.529Z,12.70
2022-09-14T03:25:44.080Z,12.70
2022-09-14T03:28:14.026Z,12.70
2022-09-14T03:30:45.498Z,12.70
2022-09-14T03:33:15.953Z,12.70
2022-09-14T03:35:44.330Z,12.60
2022-09-14T03:38:12.693Z,12.60
2022-09-14T03:40:41.139Z,12.60
2022-09-14T03:43:12.368Z,12.60
2022-09-14T03:45:40.950Z,12.60
2022-09-14T03:48:09.239Z,12.50
2022-09-14T03:50:39.279Z,12.50
2022-09-14T03:53:07.751Z,12.50
2022-09-14T03:55:36.309Z,12.50
2022-09-14T03:58:04.739Z,12.50
2022-09-14T04:00:33.028Z,12.50
2022-09-14T04:03:02.246Z,12.40
2022-09-14T04:05:30.613Z,12.40
2022-09-14T04:08:00.653Z,12.40
2022-09-14T04:10:29.048Z,12.40
2022-09-14T04:12:57.949Z,12.40
2022-09-14T04:15:26.491Z,12.40
2022-09-14T04:17:55.069Z,12.40
2022-09-14T04:20:23.485Z,12.40
2022-09-14T04:22:51.971Z,12.40
2022-09-14T04:25:23.184Z,12.40
2022-09-14T04:28:16.850Z,12.40
2022-09-14T04:30:40.208Z,12.40
2022-09-14T04:33:08.513Z,12.40
2022-09-14T04:35:37.788Z,12.30
2022-09-14T04:38:06.429Z,12.40
2022-09-14T04:40:36.272Z,12.30
2022-09-14T04:43:05.588Z,12.30
2022-09-14T04:45:33.990Z,12.30
2022-09-14T04:48:05.044Z,12.30
2022-09-14T04:50:36.689Z,12.30
2022-09-14T04:53:05.300Z,12.30
2022-09-14T04:55:33.733Z,12.30
2022-09-14T04:58:03.663Z,12.30
2022-09-14T05:00:34.451Z,12.30
2022-09-14T05:03:03.250Z,12.30
2022-09-14T05:05:31.991Z,12.30
2022-09-14T05:08:00.592Z,12.30
2022-09-14T05:10:28.801Z,12.30
2022-09-14T05:13:00.269Z,12.30
2022-09-14T05:15:30.052Z,12.30
2022-09-14T05:17:58.311Z,12.30
2022-09-14T05:20:26.663Z,12.30
2022-09-14T05:22:54.972Z,12.40
2022-09-14T05:25:23.420Z,12.40
2022-09-14T05:27:52.364Z,12.40
2022-09-14T05:30:20.664Z,12.40
2022-09-14T05:32:50.303Z,12.40
2022-09-14T05:35:18.736Z,12.50
2022-09-14T05:37:47.192Z,12.50
2022-09-14T05:40:15.569Z,12.50
2022-09-14T05:42:44.158Z,12.50
2022-09-14T05:45:15.794Z,12.60
2022-09-14T05:47:44.301Z,12.60
2022-09-14T05:50:14.820Z,12.60
2022-09-14T05:52:43.303Z,12.70
2022-09-14T05:55:11.831Z,12.70
2022-09-14T05:57:40.427Z,12.70
2022-09-14T06:00:10.064Z,12.70
2022-09-14T06:02:38.569Z,12.80
2022-09-14T06:05:07.435Z,12.80
2022-09-14T06:07:37.722Z,12.80
2022-09-14T06:10:07.136Z,12.80
2022-09-14T06:12:35.493Z,12.90
2022-09-14T06:15:03.992Z,12.90
2022-09-14T06:17:32.704Z,13.00
2022-09-14T06:20:04.346Z,13.10
2022-09-14T06:22:33.417Z,13.10
2022-09-14T06:25:03.180Z,13.20
2022-09-14T06:27:31.602Z,13.30
2022-09-14T06:30:00.193Z,13.30
2022-09-14T06:32:31.685Z,13.30
2022-09-14T06:35:00.023Z,13.40
2022-09-14T06:37:29.481Z,13.40
2022-09-14T06:39:58.101Z,13.40
2022-09-14T06:42:30.130Z,13.50
2022-09-14T06:44:58.685Z,13.50
2022-09-14T06:47:27.110Z,13.60
2022-09-14T06:49:55.591Z,13.60
2022-09-14T06:52:23.832Z,13.70
2022-09-14T06:54:52.490Z,13.70
2022-09-14T06:57:21.071Z,13.80
2022-09-14T06:59:50.842Z,13.80
2022-09-14T07:02:19.655Z,13.90
2022-09-14T07:04:48.142Z,13.90
2022-09-14T07:07:16.898Z,14.00
2022-09-14T07:09:45.222Z,14.00
2022-09-14T07:12:13.569Z,14.00
2022-09-14T07:14:42.290Z,14.00
2022-09-14T07:17:12.220Z,14.10
2022-09-14T07:19:40.603Z,14.10
2022-09-14T07:22:08.981Z,14.20
2022-09-14T07:24:37.356Z,14.30
2022-09-14T07:27:06.026Z,14.40
2022-09-14T07:29:34.510Z,14.60
2022-09-14T07:32:03.503Z,14.70
2022-09-14T07:34:33.221Z,14.80
2022-09-14T07:37:01.603Z,15.00
2022-09-14T07:39:32.698Z,15.10
2022-09-14T07:42:01.160Z,15.20
2022-09-14T07:44:29.504Z,15.30
2022-09-14T07:46:58.040Z,15.30
2022-09-14T07:49:29.621Z,15.40
2022-09-14T07:51:59.791Z,15.40
2022-09-14T07:54:28.320Z,15.40
2022-09-14T07:56:56.782Z,15.50
2022-09-14T07:59:35.587Z,15.60
2022-09-14T08:02:06.246Z,15.70
2022-09-14T08:04:35.653Z,15.80
2022-09-14T08:07:05.328Z,15.80
2022-09-14T08:09:34.162Z,15.90
2022-09-14T08:12:03.287Z,16.00
2022-09-14T08:14:31.752Z,16.00
2022-09-14T08:17:01.383Z,16.10
2022-09-14T08:19:30.487Z,16.10
2022-09-14T08:21:59.102Z,16.10
2022-09-14T08:24:28.943Z,16.20
2022-09-14T08:26:57.432Z,16.20
2022-09-14T08:29:26.079Z,16.30
2022-09-14T08:31:54.659Z,16.40
2022-09-14T08:34:23.452Z,16.40
2022-09-14T08:36:52.110Z,16.20
2022-09-14T08:39:20.585Z,16.20
2022-09-14T08:41:58.658Z,16.40
2022-09-14T08:44:30.577Z,16.50
2022-09-14T08:47:03.893Z,16.60
2022-09-14T08:49:41.225Z,16.70
2022-09-14T08:52:19.834Z,16.70
2022-09-14T08:54:54.051Z,16.80
2022-09-14T08:57:29.864Z,16.70
2022-09-14T09:00:08.043Z,16.80
2022-09-14T09:03:10.124Z,16.80
2022-09-14T09:05:45.221Z,16.80
2022-09-14T09:08:19.753Z,16.90
2022-09-14T09:10:49.809Z,16.90
2022-09-14T09:13:22.982Z,16.80
2022-09-14T09:15:54.218Z,16.90
2022-09-14T09:18:30.271Z,16.90
2022-09-14T09:21:04.453Z,16.90
2022-09-14T09:23:34.026Z,17.00
2022-09-14T09:26:07.217Z,17.10
2022-09-14T09:28:43.753Z,17.10
2022-09-14T09:31:16.184Z,17.20
2022-09-14T09:33:48.025Z,17.20
2022-09-14T09:36:16.601Z,17.30
2022-09-14T09:38:45.111Z,17.30
2022-09-14T09:41:18.872Z,17.30
2022-09-14T09:44:06.965Z,17.30
2022-09-14T09:46:40.215Z,17.20
2022-09-14T09:49:19.414Z,17.10
2022-09-14T09:51:48.081Z,17.20
2022-09-14T09:54:25.563Z,17.20
2022-09-14T09:56:56.945Z,17.30
2022-09-14T09:59:32.864Z,17.40
2022-09-14T10:02:23.811Z,17.40
2022-09-14T10:05:04.076Z,17.50
2022-09-14T10:07:34.502Z,17.50
2022-09-14T10:10:06.661Z,17.50
2022-09-14T10:12:37.386Z,17.40
2022-09-14T10:15:25.831Z,17.40
2022-09-14T10:18:06.105Z,17.40
2022-09-14T10:20:35.112Z,17.40
2022-09-14T10:23:24.992Z,17.50
2022-09-14T10:25:54.695Z,17.50
2022-09-14T10:28:25.790Z,17.50
2022-09-14T10:31:02.241Z,17.50
2022-09-14T10:33:30.914Z,17.50
2022-09-14T10:36:09.893Z,17.50
2022-09-14T10:38:43.164Z,17.50
2022-09-14T10:41:22.604Z,17.50
2022-09-14T10:44:13.950Z,17.50
2022-09-14T10:46:50.660Z,17.40
2022-09-14T10:49:32.084Z,17.40
2022-09-14T10:52:12.003Z,17.40
2022-09-14T10:55:04.323Z,17.40
2022-09-14T10:57:45.202Z,17.40
2022-09-14T11:00:16.001Z,17.30
2022-09-14T11:03:12.292Z,17.20
2022-09-14T11:05:46.370Z,17.00
2022-09-14T11:08:26.002Z,16.90
2022-09-14T11:11:11.222Z,16.90
2022-09-14T11:13:52.426Z,16.80
2022-09-14T11:16:48.441Z,16.90
2022-09-14T11:19:28.881Z,16.80
2022-09-14T11:22:04.783Z,16.80
2022-09-14T11:24:38.450Z,16.80
2022-09-14T11:27:15.723Z,16.80
2022-09-14T11:29:49.801Z,16.90
2022-09-14T11:32:29.959Z,16.90
2022-09-14T11:35:04.231Z,16.90
2022-09-14T11:37:39.344Z,16.90
2022-09-14T11:40:17.120Z,16.80
2022-09-14T11:42:51.792Z,16.80
2022-09-14T11:45:24.362Z,16.80
2022-09-14T11:48:06.987Z,16.80
2022-09-14T11:50:51.593Z,16.80
2022-09-14T11:53:21.126Z,16.90
2022-09-14T11:55:51.505Z,16.90
2022-09-14T11:58:23.741Z,16.90
2022-09-14T12:01:25.835Z,16.90
2022-09-14T12:04:13.829Z,16.90
2022-09-14T12:06:49.702Z,16.80
2022-09-14T12:09:46.291Z,16.80
2022-09-14T12:12:40.922Z,16.80
2022-09-14T12:15:35.510Z,16.80
2022-09-14T12:18:25.102Z,16.80
2022-09-14T12:21:08.173Z,16.90
2022-09-14T12:23:52.058Z,16.90
2022-09-14T12:26:38.338Z,16.90
2022-09-14T12:29:26.151Z,16.80
2022-09-14T12:32:20.044Z,16.90
2022-09-14T12:34:48.534Z,16.80
2022-09-14T12:37:32.867Z,16.80
2022-09-14T12:40:32.848Z,16.80
2022-09-14T12:43:49.275Z,16.80
2022-09-14T12:46:40.922Z,16.80
2022-09-14T12:49:32.262Z,16.80
2022-09-14T12:52:20.365Z,16.70
2022-09-14T12:55:06.023Z,16.60
2022-09-14T12:57:46.032Z,16.60
2022-09-14T13:00:18.093Z,16.60
2022-09-14T13:03:21.691Z,16.60
2022-09-14T13:05:51.139Z,16.60
2022-09-14T13:08:24.580Z,16.60
2022-09-14T13:10:53.985Z,16.70
2022-09-14T13:13:28.199Z,16.60
2022-09-14T13:15:59.704Z,16.60
2022-09-14T13:18:33.998Z,16.50
2022-09-14T13:21:04.361Z,16.40
2022-09-14T13:23:38.242Z,16.40
2022-09-14T13:26:17.026Z,16.40
2022-09-14T13:28:49.640Z,16.50
2022-09-14T13:31:22.201Z,16.50
2022-09-14T13:33:53.308Z,16.50
2022-09-14T13:36:25.311Z,16.50
2022-09-14T13:38:56.021Z,16.50
2022-09-14T13:41:30.513Z,16.50
2022-09-14T13:44:01.901Z,16.40
2022-09-14T13:46:30.698Z,16.30
2022-09-14T13:48:59.481Z,16.20
2022-09-14T13:51:29.899Z,16.10
2022-09-14T13:53:59.821Z,16.10
2022-09-14T13:56:31.563Z,16.00
2022-09-14T13:59:22.582Z,16.00
2022-09-14T14:02:00.784Z,16.00
2022-09-14T14:04:34.112Z,16.00
2022-09-14T14:07:19.107Z,16.00
2022-09-14T14:09:51.030Z,16.00
2022-09-14T14:12:25.643Z,16.00
2022-09-14T14:14:58.673Z,16.00
2022-09-14T14:17:39.195Z,16.00
2022-09-14T14:20:31.649Z,16.00
2022-09-14T14:23:02.911Z,16.00
2022-09-14T14:25:33.963Z,16.00
2022-09-14T14:28:04.134Z,16.00
2022-09-14T14:30:43.909Z,16.00
2022-09-14T14:33:14.488Z,16.10
2022-09-14T14:35:48.926Z,16.10
2022-09-14T14:38:19.194Z,16.10
2022-09-14T14:40:50.665Z,16.10
2022-09-14T14:43:22.466Z,16.10
2022-09-14T14:45:55.309Z,16.10
2022-09-14T14:48:24.863Z,16.10
2022-09-14T14:50:56.137Z,16.20
2022-09-14T14:53:26.699Z,16.20
2022-09-14T14:55:56.045Z,16.20
2022-09-14T14:58:29.503Z,16.20
2022-09-14T15:00:59.986Z,16.20
2022-09-14T15:03:28.527Z,16.20
2022-09-14T15:05:57.949Z,16.20
2022-09-14T15:08:29.473Z,16.10
2022-09-14T15:10:59.143Z,16.10
2022-09-14T15:13:27.688Z,16.10
2022-09-14T15:15:57.681Z,16.10
2022-09-14T15:18:28.890Z,16.10
2022-09-14T15:20:57.451Z,16.20
2022-09-14T15:23:26.348Z,16.10
2022-09-14T15:25:55.277Z,16.10
2022-09-14T15:28:24.558Z,16.20
2022-09-14T15:30:54.739Z,16.20
2022-09-14T15:33:24.373Z,16.20
2022-09-14T15:35:59.150Z,16.20
2022-09-14T15:38:28.920Z,16.20
2022-09-14T15:40:58.307Z,16.20
2022-09-14T15:43:27.351Z,16.20
2022-09-14T15:45:57.074Z,16.20
2022-09-14T15:48:26.416Z,16.20
2022-09-14T15:50:56.000Z,16.20
2022-09-14T15:53:25.951Z,16.30
2022-09-14T15:55:54.477Z,16.30
2022-09-14T15:58:22.987Z,16.30
2022-09-14T16:00:51.401Z,16.30
2022-09-14T16:03:20.078Z,16.30
2022-09-14T16:05:48.576Z,16.20
2022-09-14T16:08:16.852Z,16.30
2022-09-14T16:10:49.207Z,16.20
2022-09-14T16:13:17.625Z,16.20
2022-09-14T16:15:46.254Z,16.20
2022-09-14T16:18:14.782Z,16.10
2022-09-14T16:20:43.389Z,16.10
2022-09-14T16:23:12.516Z,16.10
2022-09-14T16:25:41.790Z,16.10
2022-09-14T16:28:11.671Z,16.10
2022-09-14T16:30:40.271Z,16.10
2022-09-14T16:33:08.760Z,16.10
2022-09-14T16:35:37.312Z,16.00
2022-09-14T16:38:05.923Z,16.00
2022-09-14T16:40:34.838Z,16.00
2022-09-14T16:43:04.375Z,16.00
2022-09-14T16:45:36.922Z,16.00
2022-09-14T16:48:05.654Z,15.90
2022-09-14T16:50:34.101Z,15.90
2022-09-14T16:53:02.672Z,15.90
2022-09-14T16:55:32.942Z,15.90
2022-09-14T16:58:01.491Z,15.80
2022-09-14T17:00:29.968Z,15.80
2022-09-14T17:02:59.891Z,15.70
2022-09-14T17:05:28.461Z,15.70
2022-09-14T17:07:56.813Z,15.70
2022-09-14T17:10:25.371Z,15.60
2022-09-14T17:12:54.067Z,15.50
2022-09-14T17:15:22.699Z,15.50
2022-09-14T17:17:51.337Z,15.50
2022-09-14T17:20:21.462Z,15.50
2022-09-14T17:22:49.920Z,15.40
2022-09-14T17:25:18.500Z,15.40
2022-09-14T17:27:46.884Z,15.40
2022-09-14T17:30:15.918Z,15.30
2022-09-14T17:32:44.681Z,15.30
2022-09-14T17:35:13.132Z,15.30
2022-09-14T17:37:43.111Z,15.20
2022-09-14T17:40:12.151Z,15.20
2022-09-14T17:42:42.571Z,15.10
2022-09-14T17:45:12.100Z,15.10
2022-09-14T17:47:40.494Z,15.00
2022-09-14T17:50:09.491Z,15.00
2022-09-14T17:52:37.969Z,14.90
2022-09-14T17:55:08.581Z,14.90
2022-09-14T17:57:37.120Z,14.90
2022-09-14T18:00:06.391Z,14.80
2022-09-14T18:02:34.852Z,14.80
2022-09-14T18:05:03.451Z,14.70
2022-09-14T18:07:32.220Z,14.70
2022-09-14T18:10:00.687Z,14.70
2022-09-14T18:12:36.552Z,14.70
2022-09-14T18:15:06.033Z,14.60
2022-09-14T18:17:35.769Z,14.60
2022-09-14T18:20:05.284Z,14.60
2022-09-14T18:22:34.631Z,14.50
2022-09-14T18:25:04.386Z,14.50
2022-09-14T18:27:34.795Z,14.40
2022-09-14T18:30:05.053Z,14.40
2022-09-14T18:32:35.593Z,14.30
2022-09-14T18:35:05.920Z,14.30
2022-09-14T18:37:36.741Z,14.30
2022-09-14T18:40:06.699Z,14.20
2022-09-14T18:42:37.437Z,14.20
2022-09-14T18:45:08.471Z,14.20
2022-09-14T18:47:38.397Z,14.10
2022-09-14T18:50:08.796Z,14.10
2022-09-14T18:52:38.843Z,14.10
2022-09-14T18:55:10.374Z,14.00
2022-09-14T18:57:42.692Z,14.00
2022-09-14T19:00:18.222Z,13.90
2022-09-14T19:02:54.831Z,13.90
2022-09-14T19:05:25.075Z,13.90
2022-09-14T19:07:54.748Z,13.90
2022-09-14T19:10:23.812Z,13.80
2022-09-14T19:12:54.574Z,13.80
2022-09-14T19:15:23.872Z,13.80
2022-09-14T19:17:52.931Z,13.70
2022-09-14T19:20:23.206Z,13.70
2022-09-14T19:22:53.122Z,13.70
2022-09-14T19:25:22.350Z,13.60
2022-09-14T19:27:51.610Z,13.60
2022-09-14T19:30:21.584Z,13.60
2022-09-14T19:32:51.687Z,13.50
2022-09-14T19:35:21.328Z,13.50
2022-09-14T19:37:50.229Z,13.50
2022-09-14T19:40:19.864Z,13.50
2022-09-14T19:42:49.714Z,13.40
2022-09-14T19:45:19.234Z,13.40
2022-09-14T19:47:53.646Z,13.30
2022-09-14T19:50:22.723Z,13.30
2022-09-14T19:52:53.813Z,13.20
2022-09-14T19:55:22.540Z,13.20
2022-09-14T19:57:52.542Z,13.10
2022-09-14T20:00:22.537Z,13.10
2022-09-14T20:02:53.949Z,13.10
2022-09-14T20:05:22.641Z,13.00
2022-09-14T20:07:52.943Z,13.00
2022-09-14T20:10:23.603Z,12.90
2022-09-14T20:12:54.356Z,12.90
2022-09-14T20:15:23.098Z,12.80
2022-09-14T20:17:57.682Z,12.80
2022-09-14T20:20:27.576Z,12.70
2022-09-14T20:22:56.805Z,12.70
2022-09-14T20:25:26.350Z,12.70
2022-09-14T20:27:56.156Z,12.60
2022-09-14T20:30:26.502Z,12.60
2022-09-14T20:32:57.141Z,12.50
2022-09-14T20:35:27.171Z,12.50
2022-09-14T20:37:57.642Z,12.50
2022-09-14T20:40:26.215Z,12.40
2022-09-14T20:42:55.533Z,12.40
2022-09-14T20:45:24.296Z,12.30
2022-09-14T20:47:54.729Z,12.30
2022-09-14T20:50:25.217Z,12.30
2022-09-14T20:52:56.873Z,12.20
2022-09-14T20:55:26.190Z,12.20
2022-09-14T20:57:56.432Z,12.10
2022-09-14T21:00:35.363Z,12.10
2022-09-14T21:03:05.989Z,12.00
2022-09-14T21:05:36.967Z,12.00
2022-09-14T21:08:07.895Z,11.90
2022-09-14T21:10:40.422Z,11.90
2022-09-14T21:13:09.988Z,11.90
2022-09-14T21:15:40.216Z,11.90
2022-09-14T21:18:10.038Z,11.80
2022-09-14T21:20:42.554Z,11.90
2022-09-14T21:23:11.689Z,11.90
2022-09-14T21:25:40.008Z,12.00
2022-09-14T21:28:08.500Z,12.00
2022-09-14T21:30:38.682Z,12.00
2022-09-14T21:33:07.202Z,12.00
2022-09-14T21:35:35.550Z,12.00
2022-09-14T21:38:05.261Z,12.00
2022-09-14T21:40:33.871Z,12.00
2022-09-14T21:43:02.352Z,12.00
2022-09-14T21:45:30.885Z,12.00
2022-09-14T21:47:59.324Z,12.00
2022-09-14T21:50:27.764Z,12.00
2022-09-14T21:52:56.183Z,12.00
2022-09-14T21:55:26.223Z,12.00
2022-09-14T21:57:54.846Z,12.00
2022-09-14T22:00:25.516Z,12.00
2022-09-14T22:02:57.300Z,12.00
2022-09-14T22:05:26.031Z,12.00
2022-09-14T22:07:54.556Z,12.00
2022-09-14T22:10:23.144Z,12.00
2022-09-14T22:12:52.965Z,12.00
2022-09-14T22:15:21.561Z,12.00
2022-09-14T22:17:50.020Z,12.00
2022-09-14T22:20:18.673Z,12.00
2022-09-14T22:22:47.201Z,12.10
2022-09-14T22:25:15.971Z,12.10
2022-09-14T22:27:44.725Z,12.10
2022-09-14T22:30:15.450Z,12.20
2022-09-14T22:32:43.999Z,12.20
2022-09-14T22:35:12.607Z,12.10
2022-09-14T22:37:41.235Z,12.10
2022-09-14T22:40:10.965Z,12.10
2022-09-14T22:42:39.507Z,12.10
2022-09-14T22:45:09.168Z,12.10
2022-09-14T22:47:39.110Z,12.00
2022-09-14T22:50:08.857Z,12.00
2022-09-14T22:52:37.380Z,12.00
2022-09-14T22:55:06.502Z,12.00
2022-09-14T22:57:35.227Z,11.90
2022-09-14T23:00:04.581Z,11.90
2022-09-14T23:02:33.338Z,11.90
2022-09-14T23:05:03.924Z,11.80
2022-09-14T23:07:32.993Z,11.80
2022-09-14T23:10:01.675Z,11.80
2022-09-14T23:12:30.174Z,11.80
2022-09-14T23:14:58.753Z,11.80
2022-09-14T23:17:27.121Z,11.80
2022-09-14T23:19:55.467Z,11.80
2022-09-14T23:22:25.292Z,11.80
2022-09-14T23:24:53.730Z,11.80
2022-09-14T23:27:22.337Z,11.80
2022-09-14T23:29:50.845Z,11.80
2022-09-14T23:32:19.787Z,11.80
2022-09-14T23:34:48.913Z,11.80
2022-09-14T23:37:17.880Z,11.80
2022-09-14T23:39:48.265Z,11.80
2022-09-14T23:42:16.611Z,11.90
2022-09-14T23:44:45.120Z,12.00
2022-09-14T23:47:13.620Z,12.00
2022-09-14T23:49:42.191Z,12.10
2022-09-14T23:52:10.670Z,12.20
2022-09-14T23:54:39.275Z,12.20
2022-09-14T23:57:08.964Z,12.30
2022-09-14T23:59:37.259Z,12.40
